createdAt,value
2023-02-13T00:01:54.349Z,103391.38
2023-02-13T00:04:20.820Z,103385.84
2023-02-13T00:06:47.976Z,103378.03
2023-02-13T00:09:15.056Z,103387.44
2023-02-13T00:11:41.609Z,103387.31
2023-02-13T00:14:08.519Z,103387.31
2023-02-13T00:16:35.213Z,103374.59
2023-02-13T00:19:01.715Z,103380.13
2023-02-13T00:21:28.312Z,103376.06
2023-02-13T00:23:54.770Z,103370.53
2023-02-13T00:26:21.212Z,103364.19
2023-02-13T00:28:47.806Z,103373.63
2023-02-13T00:31:17.221Z,103376.41
2023-02-13T00:33:44.445Z,103374.78
2023-02-13T00:36:15.853Z,103368.44
2023-02-13T00:38:42.705Z,103368.44
2023-02-13T00:41:10.145Z,103368.75
2023-02-13T00:43:37.350Z,103371.06
2023-02-13T00:46:04.832Z,103361.81
2023-02-13T00:48:32.933Z,103374.94
2023-02-13T00:51:00.059Z,103366.19
2023-02-13T00:53:27.352Z,103373.66
2023-02-13T00:55:53.922Z,103374.81
2023-02-13T00:58:21.055Z,103373.97
2023-02-13T01:00:47.696Z,103375.63
2023-02-13T01:03:17.745Z,103377.91
2023-02-13T01:05:44.688Z,103375.94
2023-02-13T01:08:12.305Z,103373.19
2023-02-13T01:10:40.446Z,103370.44
2023-02-13T01:13:07.730Z,103371.53
2023-02-13T01:15:34.547Z,103367.97
2023-02-13T01:18:01.427Z,103367.00
2023-02-13T01:20:29.025Z,103370.56
2023-02-13T01:22:56.137Z,103366.53
2023-02-13T01:25:23.198Z,103373.19
2023-02-13T01:27:50.007Z,103370.75
2023-02-13T01:30:18.216Z,103367.66
2023-02-13T01:32:46.015Z,103362.94
2023-02-13T01:35:13.851Z,103366.53
2023-02-13T01:37:41.037Z,103358.56
2023-02-13T01:40:10.734Z,103361.81
2023-02-13T01:42:37.324Z,103373.19
2023-02-13T01:45:18.743Z,103368.78
2023-02-13T01:47:49.921Z,103362.28
2023-02-13T01:50:24.314Z,103360.69
2023-02-13T01:52:57.067Z,103369.44
2023-02-13T01:55:26.236Z,103352.84
2023-02-13T01:58:07.980Z,103352.38
2023-02-13T02:00:35.783Z,103353.19
2023-02-13T02:03:11.099Z,103355.94
2023-02-13T02:05:37.579Z,103351.56
2023-02-13T02:08:08.337Z,103341.66
2023-02-13T02:10:35.277Z,103347.50
2023-02-13T02:13:12.820Z,103339.88
2023-02-13T02:15:40.748Z,103335.94
2023-02-13T02:18:18.936Z,103344.25
2023-02-13T02:21:10.700Z,103340.38
2023-02-13T02:24:08.000Z,103340.84
2023-02-13T02:26:53.299Z,103349.13
2023-02-13T02:29:52.112Z,103346.34
2023-02-13T02:32:57.595Z,103342.31
2023-02-13T02:35:55.147Z,103341.34
2023-02-13T02:38:43.809Z,103339.38
2023-02-13T02:41:50.193Z,103335.00
2023-02-13T02:44:33.780Z,103337.44
2023-02-13T02:47:50.681Z,103335.63
2023-02-13T02:50:20.359Z,103330.28
2023-02-13T02:52:57.062Z,103332.72
2023-02-13T02:55:32.982Z,103339.03
2023-02-13T02:58:38.452Z,103339.03
2023-02-13T03:01:28.622Z,103338.06
2023-02-13T03:04:16.014Z,103333.69
2023-02-13T03:06:45.221Z,103334.34
2023-02-13T03:09:44.047Z,103337.94
2023-02-13T03:12:32.322Z,103335.16
2023-02-13T03:14:58.877Z,103346.88
2023-02-13T03:17:44.080Z,103335.47
2023-02-13T03:20:39.461Z,103342.13
2023-02-13T03:23:30.402Z,103337.75
2023-02-13T03:26:18.595Z,103342.47
2023-02-13T03:29:20.457Z,103340.50
2023-02-13T03:32:01.567Z,103340.84
2023-02-13T03:34:54.455Z,103343.13
2023-02-13T03:37:49.447Z,103347.19
2023-02-13T03:40:22.218Z,103350.59
2023-02-13T03:42:56.326Z,103348.16
2023-02-13T03:45:47.884Z,103351.09
2023-02-13T03:48:36.763Z,103361.34
2023-02-13T03:51:05.149Z,103352.56
2023-02-13T03:53:34.740Z,103350.94
2023-02-13T03:56:21.895Z,103358.91
2023-02-13T03:59:12.104Z,103351.59
2023-02-13T04:01:39.677Z,103363.59
2023-02-13T04:04:13.532Z,103359.03
2023-02-13T04:07:01.623Z,103359.88
2023-02-13T04:09:30.228Z,103353.53
2023-02-13T04:11:59.276Z,103358.41
2023-02-13T04:14:34.772Z,103354.53
2023-02-13T04:17:19.979Z,103353.53
2023-02-13T04:19:46.579Z,103348.00
2023-02-13T04:22:13.463Z,103346.88
2023-02-13T04:24:40.054Z,103353.19
2023-02-13T04:27:06.509Z,103355.16
2023-02-13T04:29:32.976Z,103356.47
2023-02-13T04:31:59.491Z,103359.41
2023-02-13T04:34:26.080Z,103342.66
2023-02-13T04:36:52.547Z,103359.84
2023-02-13T04:39:19.197Z,103356.94
2023-02-13T04:41:45.759Z,103359.03
2023-02-13T04:44:12.505Z,103354.97
2023-02-13T04:46:39.036Z,103361.16
2023-02-13T04:49:05.814Z,103361.47
2023-02-13T04:51:32.350Z,103359.38
2023-02-13T04:53:58.813Z,103358.88
2023-02-13T04:56:25.332Z,103356.75
2023-02-13T04:58:51.801Z,103341.81
2023-02-13T05:01:19.229Z,103351.75
2023-02-13T05:03:45.831Z,103347.19
2023-02-13T05:06:12.358Z,103346.84
2023-02-13T05:08:38.902Z,103355.47
2023-02-13T05:11:05.878Z,103348.34
2023-02-13T05:13:32.825Z,103349.44
2023-02-13T05:15:59.689Z,103346.34
2023-02-13T05:18:26.249Z,103348.34
2023-02-13T05:21:12.980Z,103340.03
2023-02-13T05:23:39.552Z,103347.00
2023-02-13T05:26:06.199Z,103340.19
2023-02-13T05:28:51.143Z,103356.41
2023-02-13T05:31:17.848Z,103348.16
2023-02-13T05:33:44.411Z,103338.72
2023-02-13T05:36:10.907Z,103338.06
2023-02-13T05:38:37.549Z,103331.75
2023-02-13T05:41:04.233Z,103329.00
2023-02-13T05:43:30.867Z,103333.38
2023-02-13T05:46:09.082Z,103333.69
2023-02-13T05:48:36.143Z,103331.06
2023-02-13T05:51:02.697Z,103330.28
2023-02-13T05:53:29.886Z,103334.66
2023-02-13T05:55:56.695Z,103337.44
2023-02-13T05:58:23.357Z,103342.31
2023-02-13T06:00:49.889Z,103350.59
2023-02-13T06:03:16.399Z,103345.06
2023-02-13T06:05:42.864Z,103351.22
2023-02-13T06:08:09.341Z,103343.78
2023-02-13T06:10:35.839Z,103343.28
2023-02-13T06:13:02.317Z,103342.44
2023-02-13T06:15:28.851Z,103345.38
2023-02-13T06:17:55.344Z,103338.41
2023-02-13T06:20:21.872Z,103318.41
2023-02-13T06:22:52.440Z,103340.06
2023-02-13T06:25:19.989Z,103329.47
2023-02-13T06:27:46.703Z,103333.38
2023-02-13T06:30:14.270Z,103336.47
2023-02-13T06:32:40.851Z,103329.47
2023-02-13T06:35:08.383Z,103329.78
2023-02-13T06:37:35.157Z,103334.16
2023-02-13T06:40:01.679Z,103323.09
2023-02-13T06:42:28.158Z,103330.59
2023-02-13T06:44:54.632Z,103330.94
2023-02-13T06:47:21.153Z,103332.06
2023-02-13T06:49:47.676Z,103330.59
2023-02-13T06:52:14.197Z,103336.44
2023-02-13T06:54:47.178Z,103327.97
2023-02-13T06:57:14.511Z,103332.69
2023-02-13T06:59:41.070Z,103345.19
2023-02-13T07:02:10.415Z,103340.66
2023-02-13T07:04:36.886Z,103343.06
2023-02-13T07:07:03.343Z,103343.19
2023-02-13T07:09:31.174Z,103342.22
2023-02-13T07:11:57.812Z,103337.00
2023-02-13T07:14:24.574Z,103341.25
2023-02-13T07:16:51.019Z,103352.41
2023-02-13T07:19:17.611Z,103345.91
2023-02-13T07:21:44.183Z,103338.56
2023-02-13T07:24:10.704Z,103360.16
2023-02-13T07:26:37.145Z,103355.28
2023-02-13T07:29:11.631Z,103357.53
2023-02-13T07:31:39.249Z,103347.75
2023-02-13T07:34:05.930Z,103352.78
2023-02-13T07:36:32.378Z,103359.44
2023-02-13T07:38:58.965Z,103354.56
2023-02-13T07:41:28.728Z,103357.63
2023-02-13T07:43:55.215Z,103367.84
2023-02-13T07:46:21.738Z,103359.03
2023-02-13T07:48:48.427Z,103362.28
2023-02-13T07:51:15.953Z,103362.47
2023-02-13T07:53:42.439Z,103363.72
2023-02-13T07:56:10.682Z,103367.94
2023-02-13T07:58:37.924Z,103373.09
2023-02-13T08:01:08.996Z,103371.81
2023-02-13T08:03:35.605Z,103370.34
2023-02-13T08:06:02.746Z,103368.09
2023-02-13T08:08:29.402Z,103381.78
2023-02-13T08:11:14.482Z,103370.59
2023-02-13T08:13:41.626Z,103381.50
2023-02-13T08:16:08.112Z,103367.72
2023-02-13T08:18:34.809Z,103378.16
2023-02-13T08:21:04.510Z,103382.09
2023-02-13T08:23:31.123Z,103387.31
2023-02-13T08:26:03.344Z,103377.28
2023-02-13T08:28:30.020Z,103373.59
2023-02-13T08:30:56.638Z,103372.78
2023-02-13T08:33:23.358Z,103379.97
2023-02-13T08:35:49.836Z,103373.97
2023-02-13T08:38:16.404Z,103376.59
2023-02-13T08:40:42.935Z,103382.44
2023-02-13T08:43:09.475Z,103381.31
2023-02-13T08:45:36.864Z,103377.59
2023-02-13T08:48:07.561Z,103382.63
2023-02-13T08:50:36.284Z,103377.09
2023-02-13T08:53:03.876Z,103371.44
2023-02-13T08:55:31.539Z,103383.78
2023-02-13T08:58:05.226Z,103385.72
2023-02-13T09:00:31.953Z,103375.66
2023-02-13T09:03:02.741Z,103380.66
2023-02-13T09:05:31.634Z,103375.63
2023-02-13T09:08:03.632Z,103377.38
2023-02-13T09:10:31.890Z,103371.50
2023-02-13T09:12:58.798Z,103375.06
2023-02-13T09:15:25.325Z,103377.00
2023-02-13T09:17:51.798Z,103367.09
2023-02-13T09:20:18.547Z,103372.25
2023-02-13T09:22:45.009Z,103370.44
2023-02-13T09:25:11.522Z,103368.75
2023-02-13T09:27:39.367Z,103375.09
2023-02-13T09:30:09.992Z,103374.69
2023-02-13T09:32:37.727Z,103364.25
2023-02-13T09:35:06.542Z,103367.91
2023-02-13T09:37:33.093Z,103358.28
2023-02-13T09:39:59.572Z,103370.91
2023-02-13T09:42:30.265Z,103363.81
2023-02-13T09:45:01.631Z,103363.28
2023-02-13T09:47:41.669Z,103373.59
2023-02-13T09:50:18.778Z,103377.28
2023-02-13T09:52:46.667Z,103372.44
2023-02-13T09:55:21.780Z,103378.59
2023-02-13T09:58:16.230Z,103377.59
2023-02-13T10:00:46.195Z,103380.44
2023-02-13T10:03:21.645Z,103384.19
2023-02-13T10:06:04.854Z,103380.97
2023-02-13T10:08:43.339Z,103383.41
2023-02-13T10:11:47.019Z,103376.16
2023-02-13T10:14:21.956Z,103380.09
2023-02-13T10:16:59.043Z,103377.47
2023-02-13T10:19:36.232Z,103382.22
2023-02-13T10:22:14.108Z,103378.19
2023-02-13T10:24:54.200Z,103376.22
2023-02-13T10:27:24.871Z,103374.25
2023-02-13T10:30:07.094Z,103379.25
2023-02-13T10:33:21.501Z,103385.13
2023-02-13T10:36:02.658Z,103375.88
2023-02-13T10:38:35.734Z,103375.50
2023-02-13T10:41:19.702Z,103375.09
2023-02-13T10:44:10.988Z,103368.81
2023-02-13T10:46:51.658Z,103374.63
2023-02-13T10:49:42.529Z,103373.78
2023-02-13T10:52:22.957Z,103370.63
2023-02-13T10:55:09.995Z,103364.44
2023-02-13T10:58:01.947Z,103362.16
2023-02-13T11:00:59.206Z,103354.59
2023-02-13T11:03:28.368Z,103349.25
2023-02-13T11:05:57.471Z,103346.69
2023-02-13T11:08:30.923Z,103338.47
2023-02-13T11:10:57.401Z,103337.31
2023-02-13T11:13:30.004Z,103346.47
2023-02-13T11:16:04.530Z,103341.13
2023-02-13T11:18:44.269Z,103332.78
2023-02-13T11:21:21.839Z,103327.97
2023-02-13T11:23:54.922Z,103323.91
2023-02-13T11:26:35.891Z,103329.31
2023-02-13T11:29:44.600Z,103323.63
2023-02-13T11:32:14.230Z,103319.25
2023-02-13T11:34:41.526Z,103317.06
2023-02-13T11:37:29.498Z,103324.59
2023-02-13T11:39:58.975Z,103313.34
2023-02-13T11:42:28.412Z,103315.84
2023-02-13T11:45:08.236Z,103304.19
2023-02-13T11:47:41.101Z,103310.72
2023-02-13T11:50:26.627Z,103307.59
2023-02-13T11:52:58.621Z,103298.84
2023-02-13T11:55:34.387Z,103295.75
2023-02-13T11:58:04.692Z,103295.81
2023-02-13T12:00:49.441Z,103298.28
2023-02-13T12:03:21.798Z,103292.19
2023-02-13T12:06:14.300Z,103283.06
2023-02-13T12:08:44.111Z,103289.13
2023-02-13T12:11:33.565Z,103281.47
2023-02-13T12:14:00.390Z,103283.38
2023-02-13T12:16:36.501Z,103276.31
2023-02-13T12:19:28.558Z,103273.50
2023-02-13T12:22:09.823Z,103274.84
2023-02-13T12:25:05.156Z,103269.84
2023-02-13T12:27:54.625Z,103257.13
2023-02-13T12:30:39.366Z,103259.81
2023-02-13T12:33:54.198Z,103252.53
2023-02-13T12:36:48.775Z,103243.78
2023-02-13T12:39:23.827Z,103244.47
2023-02-13T12:41:53.193Z,103247.69
2023-02-13T12:44:50.484Z,103239.53
2023-02-13T12:47:21.957Z,103233.88
2023-02-13T12:50:07.140Z,103221.78
2023-02-13T12:52:52.894Z,103229.09
2023-02-13T12:55:24.867Z,103217.38
2023-02-13T12:58:09.415Z,103221.41
2023-02-13T13:01:07.444Z,103220.03
2023-02-13T13:03:49.563Z,103213.31
2023-02-13T13:06:21.461Z,103215.47
2023-02-13T13:08:56.870Z,103205.13
2023-02-13T13:11:29.723Z,103201.25
2023-02-13T13:14:02.405Z,103201.91
2023-02-13T13:16:54.758Z,103197.00
2023-02-13T13:19:38.652Z,103206.81
2023-02-13T13:22:13.622Z,103193.97
2023-02-13T13:25:16.702Z,103197.81
2023-02-13T13:27:46.750Z,103186.31
2023-02-13T13:30:13.243Z,103188.84
2023-02-13T13:32:41.765Z,103186.50
2023-02-13T13:35:15.061Z,103177.75
2023-02-13T13:38:35.512Z,103173.53
2023-02-13T13:41:14.940Z,103184.59
2023-02-13T13:43:53.310Z,103176.31
2023-02-13T13:46:50.745Z,103175.25
2023-02-13T13:49:44.691Z,103167.66
2023-02-13T13:52:19.387Z,103175.25
2023-02-13T13:54:51.489Z,103165.59
2023-02-13T13:57:20.537Z,103165.59
2023-02-13T13:59:53.852Z,103160.50
2023-02-13T14:02:20.269Z,103157.69
2023-02-13T14:05:24.498Z,103151.31
2023-02-13T14:08:04.111Z,103141.00
2023-02-13T14:10:30.610Z,103141.22
2023-02-13T14:12:57.063Z,103147.59
2023-02-13T14:15:38.652Z,103145.03
2023-02-13T14:18:08.064Z,103138.91
2023-02-13T14:20:44.173Z,103138.38
2023-02-13T14:23:19.653Z,103138.97
2023-02-13T14:25:47.279Z,103135.84
2023-02-13T14:28:40.903Z,103137.69
2023-02-13T14:31:14.961Z,103131.28
2023-02-13T14:33:41.695Z,103131.09
2023-02-13T14:36:20.296Z,103129.28
2023-02-13T14:38:57.098Z,103126.13
2023-02-13T14:41:51.570Z,103123.56
2023-02-13T14:44:47.248Z,103121.41
2023-02-13T14:47:13.562Z,103117.28
2023-02-13T14:49:41.190Z,103109.72
2023-02-13T14:52:18.002Z,103111.47
2023-02-13T14:54:51.427Z,103109.47
2023-02-13T14:57:21.662Z,103108.66
2023-02-13T14:59:53.055Z,103108.09
2023-02-13T15:02:29.597Z,103111.72
2023-02-13T15:05:01.773Z,103106.22
2023-02-13T15:07:45.266Z,103110.13
2023-02-13T15:10:23.534Z,103111.41
2023-02-13T15:13:00.387Z,103113.97
2023-02-13T15:15:36.805Z,103115.41
2023-02-13T15:18:20.744Z,103102.44
2023-02-13T15:20:47.754Z,103113.44
2023-02-13T15:23:26.606Z,103106.38
2023-02-13T15:26:07.076Z,103098.50
2023-02-13T15:28:35.202Z,103098.16
2023-02-13T15:31:06.916Z,103093.03
2023-02-13T15:33:35.050Z,103097.13
2023-02-13T15:36:05.711Z,103099.94
2023-02-13T15:38:36.810Z,103090.31
2023-02-13T15:41:03.308Z,103092.75
2023-02-13T15:43:36.655Z,103096.38
2023-02-13T15:46:34.275Z,103091.94
2023-02-13T15:49:16.666Z,103091.09
2023-02-13T15:51:44.532Z,103087.84
2023-02-13T15:54:23.205Z,103092.00
2023-02-13T15:56:51.724Z,103089.47
2023-02-13T15:59:19.654Z,103101.66
2023-02-13T16:01:46.916Z,103100.63
2023-02-13T16:04:16.211Z,103094.84
2023-02-13T16:06:44.816Z,103098.28
2023-02-13T16:09:33.969Z,103100.88
2023-02-13T16:12:07.215Z,103093.94
2023-02-13T16:14:47.106Z,103093.22
2023-02-13T16:17:25.851Z,103095.75
2023-02-13T16:20:00.904Z,103089.81
2023-02-13T16:22:43.119Z,103097.25
2023-02-13T16:25:12.594Z,103095.44
2023-02-13T16:27:43.286Z,103095.47
2023-02-13T16:30:33.835Z,103092.88
2023-02-13T16:33:15.475Z,103082.75
2023-02-13T16:35:46.006Z,103086.44
2023-02-13T16:38:30.998Z,103095.03
2023-02-13T16:41:18.928Z,103089.72
2023-02-13T16:43:46.998Z,103087.91
2023-02-13T16:46:17.795Z,103097.66
2023-02-13T16:48:56.668Z,103093.81
2023-02-13T16:51:43.681Z,103092.09
2023-02-13T16:54:28.617Z,103101.69
2023-02-13T16:57:21.404Z,103095.91
2023-02-13T16:59:47.839Z,103096.38
2023-02-13T17:02:21.893Z,103106.81
2023-02-13T17:04:49.730Z,103098.66
2023-02-13T17:07:28.412Z,103107.31
2023-02-13T17:10:04.705Z,103117.03
2023-02-13T17:12:35.539Z,103119.19
2023-02-13T17:15:02.354Z,103112.63
2023-02-13T17:17:31.575Z,103126.72
2023-02-13T17:19:59.165Z,103122.34
2023-02-13T17:22:30.240Z,103129.34
2023-02-13T17:24:58.038Z,103125.13
2023-02-13T17:27:24.549Z,103128.09
2023-02-13T17:29:51.146Z,103135.78
2023-02-13T17:32:24.168Z,103137.72
2023-02-13T17:34:50.752Z,103142.28
2023-02-13T17:37:22.681Z,103140.81
2023-02-13T17:39:49.998Z,103141.44
2023-02-13T17:42:27.989Z,103143.66
2023-02-13T17:44:56.494Z,103139.16
2023-02-13T17:47:24.650Z,103145.75
2023-02-13T17:49:55.161Z,103139.22
2023-02-13T17:52:31.126Z,103140.75
2023-02-13T17:54:57.584Z,103153.00
2023-02-13T17:57:24.076Z,103149.22
2023-02-13T17:59:50.663Z,103144.59
2023-02-13T18:02:20.083Z,103143.47
2023-02-13T18:04:47.785Z,103144.44
2023-02-13T18:07:20.041Z,103145.47
2023-02-13T18:09:47.007Z,103154.41
2023-02-13T18:12:22.870Z,103150.94
2023-02-13T18:14:51.378Z,103145.97
2023-02-13T18:17:18.814Z,103145.38
2023-02-13T18:19:45.876Z,103141.09
2023-02-13T18:22:13.008Z,103143.78
2023-02-13T18:24:42.404Z,103140.72
2023-02-13T18:27:11.299Z,103146.84
2023-02-13T18:29:38.247Z,103142.09
2023-02-13T18:32:10.203Z,103148.66
2023-02-13T18:34:37.828Z,103142.44
2023-02-13T18:37:05.542Z,103146.56
2023-02-13T18:39:32.687Z,103134.75
2023-02-13T18:41:59.314Z,103144.09
2023-02-13T18:44:28.631Z,103146.97
2023-02-13T18:46:55.313Z,103143.59
2023-02-13T18:49:21.886Z,103141.38
2023-02-13T18:51:48.435Z,103136.38
2023-02-13T18:54:14.992Z,103131.41
2023-02-13T18:56:41.510Z,103137.50
2023-02-13T18:59:08.033Z,103142.91
2023-02-13T19:01:35.422Z,103132.59
2023-02-13T19:04:03.315Z,103137.66
2023-02-13T19:06:30.724Z,103137.75
2023-02-13T19:08:57.641Z,103139.91
2023-02-13T19:11:26.403Z,103133.72
2023-02-13T19:13:55.120Z,103147.78
2023-02-13T19:16:22.449Z,103149.59
2023-02-13T19:18:53.200Z,103144.25
2023-02-13T19:21:22.161Z,103140.88
2023-02-13T19:23:49.552Z,103139.91
2023-02-13T19:26:18.785Z,103149.75
2023-02-13T19:28:45.260Z,103148.81
2023-02-13T19:31:18.650Z,103142.28
2023-02-13T19:33:45.388Z,103147.69
2023-02-13T19:36:15.028Z,103145.94
2023-02-13T19:38:43.367Z,103140.59
2023-02-13T19:41:16.038Z,103150.50
2023-02-13T19:43:50.685Z,103147.47
2023-02-13T19:46:23.436Z,103143.06
2023-02-13T19:48:50.440Z,103150.88
2023-02-13T19:51:28.207Z,103153.03
2023-02-13T19:54:00.433Z,103156.28
2023-02-13T19:56:28.564Z,103157.28
2023-02-13T19:58:55.326Z,103148.38
2023-02-13T20:01:23.846Z,103150.50
2023-02-13T20:03:50.693Z,103158.16
2023-02-13T20:06:22.966Z,103154.44
2023-02-13T20:08:50.212Z,103159.31
2023-02-13T20:11:18.569Z,103151.84
2023-02-13T20:13:45.106Z,103154.78
2023-02-13T20:16:14.137Z,103160.50
2023-02-13T20:18:41.181Z,103149.13
2023-02-13T20:21:09.180Z,103156.00
2023-02-13T20:23:35.931Z,103149.00
2023-02-13T20:26:20.509Z,103140.41
2023-02-13T20:28:48.009Z,103153.72
2023-02-13T20:31:22.008Z,103141.41
2023-02-13T20:33:51.020Z,103151.47
2023-02-13T20:36:29.143Z,103137.69
2023-02-13T20:39:01.433Z,103147.91
2023-02-13T20:41:30.942Z,103143.34
2023-02-13T20:43:59.292Z,103150.34
2023-02-13T20:46:26.037Z,103146.94
2023-02-13T20:48:52.529Z,103138.47
2023-02-13T20:51:19.094Z,103145.47
2023-02-13T20:53:46.584Z,103134.59
2023-02-13T20:56:14.332Z,103142.88
2023-02-13T20:58:44.624Z,103134.41
2023-02-13T21:01:21.023Z,103122.56
2023-02-13T21:03:53.443Z,103125.78
2023-02-13T21:06:31.372Z,103135.53
2023-02-13T21:08:58.497Z,103135.66
2023-02-13T21:11:26.289Z,103134.69
2023-02-13T21:13:52.819Z,103137.78
2023-02-13T21:16:24.992Z,103144.25
2023-02-13T21:18:54.244Z,103146.66
2023-02-13T21:21:22.549Z,103150.22
2023-02-13T21:23:52.879Z,103155.06
2023-02-13T21:26:19.469Z,103162.69
2023-02-13T21:28:48.446Z,103155.38
2023-02-13T21:31:23.706Z,103150.16
2023-02-13T21:33:50.295Z,103146.56
2023-02-13T21:36:16.769Z,103146.09
2023-02-13T21:38:43.521Z,103143.47
2023-02-13T21:41:14.413Z,103139.72
2023-02-13T21:43:46.391Z,103144.09
2023-02-13T21:46:18.861Z,103144.06
2023-02-13T21:48:47.300Z,103148.28
2023-02-13T21:51:19.526Z,103145.03
2023-02-13T21:53:49.277Z,103138.97
2023-02-13T21:56:19.176Z,103118.69
2023-02-13T21:58:46.374Z,103127.41
2023-02-13T22:01:25.577Z,103131.31
2023-02-13T22:03:56.409Z,103128.69
2023-02-13T22:06:24.916Z,103130.81
2023-02-13T22:08:58.873Z,103137.28
2023-02-13T22:11:25.976Z,103131.25
2023-02-13T22:13:57.117Z,103142.72
2023-02-13T22:16:24.043Z,103135.09
2023-02-13T22:18:52.719Z,103135.22
2023-02-13T22:21:21.786Z,103140.84
2023-02-13T22:23:51.201Z,103138.41
2023-02-13T22:26:24.241Z,103138.69
2023-02-13T22:28:51.763Z,103142.19
2023-02-13T22:31:19.805Z,103139.75
2023-02-13T22:33:52.304Z,103146.34
2023-02-13T22:36:25.340Z,103148.09
2023-02-13T22:38:52.383Z,103144.88
2023-02-13T22:41:24.272Z,103126.66
2023-02-13T22:43:51.473Z,103144.34
2023-02-13T22:46:26.044Z,103146.72
2023-02-13T22:48:53.453Z,103142.16
2023-02-13T22:51:22.561Z,103149.09
2023-02-13T22:53:49.367Z,103153.09
2023-02-13T22:56:15.905Z,103150.34
2023-02-13T22:58:42.369Z,103144.16
2023-02-13T23:01:13.761Z,103139.25
2023-02-13T23:03:41.069Z,103143.16
2023-02-13T23:06:09.088Z,103143.94
2023-02-13T23:08:36.196Z,103135.63
2023-02-13T23:11:26.735Z,103138.19
2023-02-13T23:13:53.298Z,103137.66
2023-02-13T23:16:19.942Z,103135.03
2023-02-13T23:18:57.357Z,103140.03
2023-02-13T23:21:25.438Z,103137.88
2023-02-13T23:23:52.409Z,103135.28
2023-02-13T23:26:19.466Z,103128.94
2023-02-13T23:28:45.985Z,103145.75
2023-02-13T23:31:12.592Z,103138.13
2023-02-13T23:33:39.104Z,103138.75
2023-02-13T23:36:06.046Z,103133.34
2023-02-13T23:38:32.504Z,103139.97
2023-02-13T23:41:07.056Z,103138.72
2023-02-13T23:43:33.613Z,103141.97
2023-02-13T23:46:03.819Z,103135.28
2023-02-13T23:48:33.318Z,103136.41
2023-02-13T23:51:01.032Z,103140.06
2023-02-13T23:53:27.731Z,103137.09
2023-02-13T23:55:55.005Z,103130.81
2023-02-13T23:58:21.766Z,103119.72
